Time;durP1;ratioP1;P1;durP2;ratioP2;P2;SDS_P1;SDS_P2;PMS_P1;PMS_P2;Temp;Humidity;BMP_temperature;BMP_pressure;BME280_temperature;BME280_humidity;BME280_pressure;Samples;Min_cycle;Max_cycle;Signal;HPM_P1;HPM_P2
2022/04/18 00:02:11;;;;;;;21.52;10.65;;;;;;;;;;4974951;28;20029;-56
2022/04/18 00:04:37;;;;;;;14.18;9.35;;;;;;;;;;4975866;28;20029;-53
2022/04/18 00:07:04;;;;;;;12.98;9.10;;;;;;;;;;4974341;28;20384;-54
2022/04/18 00:09:33;;;;;;;11.45;8.15;;;;;;;;;;4974854;28;20026;-52
2022/04/18 00:11:59;;;;;;;15.70;10.00;;;;;;;;;;4958038;28;20042;-53
2022/04/18 00:14:25;;;;;;;12.75;8.68;;;;;;;;;;4957448;28;20471;-57
2022/04/18 00:16:51;;;;;;;11.20;8.18;;;;;;;;;;4975011;28;20039;-51
2022/04/18 00:19:18;;;;;;;13.60;9.65;;;;;;;;;;4975024;28;20054;-51
2022/04/18 00:21:44;;;;;;;12.38;8.45;;;;;;;;;;4974137;28;20042;-54
2022/04/18 00:24:11;;;;;;;11.05;7.88;;;;;;;;;;4974696;28;20066;-51
2022/04/18 00:26:39;;;;;;;11.68;7.70;;;;;;;;;;4974655;28;20029;-53
2022/04/18 00:29:06;;;;;;;10.52;7.20;;;;;;;;;;4974556;28;20081;-56
2022/04/18 00:31:32;;;;;;;11.40;8.63;;;;;;;;;;4974434;28;20043;-55
2022/04/18 00:33:58;;;;;;;10.95;7.38;;;;;;;;;;4975012;28;20043;-53
2022/04/18 00:36:24;;;;;;;11.27;7.97;;;;;;;;;;4974363;28;20101;-49
2022/04/18 00:38:50;;;;;;;11.95;8.35;;;;;;;;;;4974852;28;20023;-51
2022/04/18 00:41:16;;;;;;;14.27;9.32;;;;;;;;;;4974821;28;20025;-51
2022/04/18 00:43:43;;;;;;;14.98;9.40;;;;;;;;;;4974493;28;20054;-53
2022/04/18 00:46:09;;;;;;;12.70;8.93;;;;;;;;;;4974434;28;20023;-49
2022/04/18 00:48:36;;;;;;;11.80;8.43;;;;;;;;;;4974402;28;20034;-52
2022/04/18 00:51:04;;;;;;;16.30;9.82;;;;;;;;;;4974629;28;20038;-50
2022/04/18 00:53:31;;;;;;;15.48;9.85;;;;;;;;;;4974684;28;20018;-54
2022/04/18 00:55:57;;;;;;;14.75;9.88;;;;;;;;;;4974394;28;20030;-48
2022/04/18 00:58:23;;;;;;;13.38;9.35;;;;;;;;;;4974356;28;20026;-53
2022/04/18 01:00:49;;;;;;;13.35;9.02;;;;;;;;;;4974338;28;20525;-54
2022/04/18 01:03:16;;;;;;;14.15;9.65;;;;;;;;;;4974307;28;20042;-48
2022/04/18 01:05:43;;;;;;;14.75;9.55;;;;;;;;;;4974225;28;20027;-50
2022/04/18 01:08:09;;;;;;;15.15;10.23;;;;;;;;;;4974635;28;20015;-51
2022/04/18 01:10:36;;;;;;;12.40;8.77;;;;;;;;;;4974167;28;20085;-51
2022/04/18 01:13:02;;;;;;;13.43;9.48;;;;;;;;;;4974465;28;20522;-51
2022/04/18 01:15:28;;;;;;;12.85;9.10;;;;;;;;;;4974222;28;20060;-53
2022/04/18 01:17:54;;;;;;;12.48;9.50;;;;;;;;;;4974165;28;20463;-55
2022/04/18 01:20:20;;;;;;;12.98;9.60;;;;;;;;;;4977554;28;20038;-53
2022/04/18 01:22:49;;;;;;;14.38;9.88;;;;;;;;;;4978095;28;20035;-56
2022/04/18 01:30:45;;;;;;;14.45;10.48;;;;;;;;;;4977369;28;20117;-56
2022/04/18 01:33:11;;;;;;;15.63;10.85;;;;;;;;;;4977772;28;20054;-57
2022/04/18 01:35:37;;;;;;;15.85;10.98;;;;;;;;;;4977913;28;20034;-55
2022/04/18 01:38:03;;;;;;;15.00;10.73;;;;;;;;;;4977459;28;20023;-54
2022/04/18 01:40:29;;;;;;;18.58;11.93;;;;;;;;;;4977774;28;20031;-53
2022/04/18 01:42:55;;;;;;;17.90;11.90;;;;;;;;;;4977774;28;20026;-54
2022/04/18 01:45:22;;;;;;;15.77;11.27;;;;;;;;;;4977645;28;20027;-53
2022/04/18 01:47:48;;;;;;;15.05;11.25;;;;;;;;;;4977704;28;20018;-54
2022/04/18 01:50:14;;;;;;;14.88;10.70;;;;;;;;;;4977462;28;20030;-54
2022/04/18 01:52:40;;;;;;;15.27;10.55;;;;;;;;;;4977224;28;20456;-53
2022/04/18 01:55:06;;;;;;;14.40;10.82;;;;;;;;;;4977398;28;20023;-52
2022/04/18 01:57:33;;;;;;;18.70;12.20;;;;;;;;;;4977731;28;20027;-54
2022/04/18 02:00:00;;;;;;;19.80;11.88;;;;;;;;;;4977124;28;20031;-54
2022/04/18 02:02:26;;;;;;;18.10;11.57;;;;;;;;;;4977221;28;20030;-53
2022/04/18 02:04:52;;;;;;;21.85;11.73;;;;;;;;;;4977253;28;20030;-54
2022/04/18 02:07:18;;;;;;;18.15;12.50;;;;;;;;;;4976696;28;20027;-51
2022/04/18 02:09:44;;;;;;;15.00;10.75;;;;;;;;;;4977161;28;20027;-52
2022/04/18 02:12:11;;;;;;;16.80;11.35;;;;;;;;;;4977187;28;20049;-56
2022/04/18 02:14:38;;;;;;;15.98;11.23;;;;;;;;;;4976461;28;20080;-56
2022/04/18 02:17:04;;;;;;;15.50;11.23;;;;;;;;;;4977076;28;20023;-55
2022/04/18 02:19:30;;;;;;;15.48;10.88;;;;;;;;;;4976730;28;20018;-56
2022/04/18 02:21:57;;;;;;;14.55;11.07;;;;;;;;;;4976642;28;20027;-49
2022/04/18 02:24:23;;;;;;;15.02;10.70;;;;;;;;;;4977196;28;20023;-54
2022/04/18 02:26:49;;;;;;;15.25;11.20;;;;;;;;;;4976625;28;20029;-55
2022/04/18 02:29:15;;;;;;;17.08;11.00;;;;;;;;;;4959302;28;20404;-57
2022/04/18 02:34:26;;;;;;;18.02;11.52;;;;;;;;;;4976505;28;20137;-55
2022/04/18 02:36:52;;;;;;;16.88;12.05;;;;;;;;;;4976573;28;20019;-56
2022/04/18 02:39:18;;;;;;;16.80;11.75;;;;;;;;;;4976699;28;20029;-55
2022/04/18 02:41:44;;;;;;;18.50;11.88;;;;;;;;;;4976309;28;20452;-55
2022/04/18 02:44:10;;;;;;;17.90;12.27;;;;;;;;;;4976563;28;20030;-57
2022/04/18 02:46:36;;;;;;;18.80;12.35;;;;;;;;;;4976780;28;20460;-54
2022/04/18 02:49:02;;;;;;;16.52;11.65;;;;;;;;;;4975932;28;20019;-53
2022/04/18 02:51:29;;;;;;;16.63;12.43;;;;;;;;;;4976047;28;20042;-53
2022/04/18 02:53:55;;;;;;;19.88;13.30;;;;;;;;;;4976157;28;20023;-53
2022/04/18 02:56:21;;;;;;;18.90;13.60;;;;;;;;;;4975773;28;20031;-55
2022/04/18 02:58:48;;;;;;;22.02;14.88;;;;;;;;;;4976054;28;20023;-56
2022/04/18 03:01:14;;;;;;;24.95;16.25;;;;;;;;;;4976302;28;20030;-57
2022/04/18 03:03:40;;;;;;;22.15;15.15;;;;;;;;;;4975925;28;20018;-55
2022/04/18 03:06:06;;;;;;;23.75;15.40;;;;;;;;;;4975864;28;20468;-51
2022/04/18 03:08:33;;;;;;;22.33;14.30;;;;;;;;;;4975810;28;20038;-57
2022/04/18 03:11:09;;;;;;;21.85;14.35;;;;;;;;;;4975767;28;20035;-54
2022/04/18 03:13:37;;;;;;;21.67;13.52;;;;;;;;;;4975743;28;20023;-53
2022/04/18 03:16:04;;;;;;;24.23;12.23;;;;;;;;;;4975582;28;20030;-53
2022/04/18 03:18:31;;;;;;;17.73;12.13;;;;;;;;;;4975544;28;20015;-54
2022/04/18 03:20:57;;;;;;;19.85;12.50;;;;;;;;;;4975912;28;20034;-53
2022/04/18 03:23:23;;;;;;;23.23;15.45;;;;;;;;;;4975213;28;20109;-55
2022/04/18 03:25:49;;;;;;;19.38;13.13;;;;;;;;;;4976132;28;20039;-54
2022/04/18 03:28:16;;;;;;;23.77;15.18;;;;;;;;;;4976064;28;20467;-53
2022/04/18 03:30:44;;;;;;;21.23;14.35;;;;;;;;;;4975098;28;20468;-54
2022/04/18 03:33:10;;;;;;;17.45;12.25;;;;;;;;;;4975837;28;20094;-54
2022/04/18 03:35:36;;;;;;;14.43;10.35;;;;;;;;;;4975372;28;20506;-55
2022/04/18 03:40:47;;;;;;;13.82;9.90;;;;;;;;;;4975253;28;20041;-57
2022/04/18 03:43:13;;;;;;;18.08;11.57;;;;;;;;;;4974713;28;20031;-55
2022/04/18 03:45:39;;;;;;;14.77;10.05;;;;;;;;;;4975166;28;20037;-52
2022/04/18 03:48:05;;;;;;;16.10;9.02;;;;;;;;;;4975383;28;20053;-51
2022/04/18 03:50:32;;;;;;;14.15;9.18;;;;;;;;;;4975031;28;20046;-52
2022/04/18 03:52:58;;;;;;;14.95;10.20;;;;;;;;;;4975128;28;20054;-53
2022/04/18 03:55:25;;;;;;;17.88;11.73;;;;;;;;;;4975282;28;20348;-52
2022/04/18 03:57:52;;;;;;;17.35;11.93;;;;;;;;;;4974772;28;20107;-55
2022/04/18 04:00:19;;;;;;;16.73;11.02;;;;;;;;;;4974963;28;20031;-55
2022/04/18 04:02:45;;;;;;;19.45;12.77;;;;;;;;;;4974851;28;20387;-56
2022/04/18 04:05:11;;;;;;;21.17;14.73;;;;;;;;;;4974896;28;20030;-56
2022/04/18 04:07:37;;;;;;;32.72;19.17;;;;;;;;;;4974853;28;20034;-55
2022/04/18 04:10:03;;;;;;;29.02;17.48;;;;;;;;;;4975023;28;20025;-53
2022/04/18 04:12:30;;;;;;;35.72;20.65;;;;;;;;;;4975179;28;20027;-52
2022/04/18 04:14:56;;;;;;;34.80;20.38;;;;;;;;;;4974761;28;20023;-52
2022/04/18 04:17:22;;;;;;;39.80;21.92;;;;;;;;;;4975275;28;20031;-55
2022/04/18 04:19:49;;;;;;;79.60;39.13;;;;;;;;;;4974698;28;20062;-52
2022/04/18 04:22:15;;;;;;;64.47;34.22;;;;;;;;;;4974664;28;20531;-54
2022/04/18 04:24:41;;;;;;;72.40;38.70;;;;;;;;;;4975101;28;20113;-50
2022/04/18 04:27:07;;;;;;;42.38;24.67;;;;;;;;;;4974183;28;20027;-57
2022/04/18 04:29:34;;;;;;;47.53;27.13;;;;;;;;;;4974872;28;20022;-56
2022/04/18 04:32:00;;;;;;;74.97;39.45;;;;;;;;;;4974939;28;20035;-51
2022/04/18 04:34:26;;;;;;;48.25;26.95;;;;;;;;;;4974895;28;20118;-57
2022/04/18 04:36:52;;;;;;;58.42;31.05;;;;;;;;;;4974969;28;20119;-54
2022/04/18 04:39:18;;;;;;;28.13;18.50;;;;;;;;;;4974436;28;20023;-54
2022/04/18 04:41:44;;;;;;;33.88;22.25;;;;;;;;;;4974229;28;20054;-52
2022/04/18 04:44:10;;;;;;;32.67;22.45;;;;;;;;;;4974737;28;20027;-54
2022/04/18 04:46:37;;;;;;;31.67;22.90;;;;;;;;;;4974241;28;20093;-55
2022/04/18 04:49:03;;;;;;;33.40;21.35;;;;;;;;;;4974478;28;20428;-53
2022/04/18 04:51:29;;;;;;;23.45;16.25;;;;;;;;;;4974363;28;20027;-54
2022/04/18 04:53:56;;;;;;;24.92;16.83;;;;;;;;;;4975188;28;20019;-51
2022/04/18 04:56:24;;;;;;;20.80;14.27;;;;;;;;;;4978877;28;20034;-53
2022/04/18 04:58:50;;;;;;;18.92;14.68;;;;;;;;;;4978604;28;20023;-49
2022/04/18 05:01:16;;;;;;;26.63;17.67;;;;;;;;;;4977763;28;20038;-55
2022/04/18 05:03:43;;;;;;;27.58;17.48;;;;;;;;;;4977616;28;20045;-51
2022/04/18 05:06:10;;;;;;;29.45;19.50;;;;;;;;;;4977295;28;20026;-52
2022/04/18 05:08:37;;;;;;;33.58;22.73;;;;;;;;;;4977563;28;20033;-52
2022/04/18 05:11:03;;;;;;;27.90;20.45;;;;;;;;;;4977498;28;20027;-51
2022/04/18 05:13:29;;;;;;;27.05;18.17;;;;;;;;;;4977444;28;20435;-53
2022/04/18 05:15:56;;;;;;;31.75;20.67;;;;;;;;;;4977333;28;20019;-51
2022/04/18 05:18:22;;;;;;;28.85;19.80;;;;;;;;;;4978131;28;20113;-50
2022/04/18 05:20:48;;;;;;;34.63;20.80;;;;;;;;;;4978193;28;20106;-53
2022/04/18 05:23:20;;;;;;;33.22;21.98;;;;;;;;;;4977416;28;20023;-54
2022/04/18 05:25:46;;;;;;;32.33;20.90;;;;;;;;;;4977739;28;20027;-54
2022/04/18 05:28:12;;;;;;;56.25;33.40;;;;;;;;;;4977836;28;20027;-54
2022/04/18 05:30:39;;;;;;;26.35;18.33;;;;;;;;;;4977159;28;20031;-52
2022/04/18 05:33:07;;;;;;;21.45;16.33;;;;;;;;;;4977665;28;20178;-53
2022/04/18 05:35:33;;;;;;;22.67;15.43;;;;;;;;;;4977438;28;20514;-54
2022/04/18 05:38:00;;;;;;;20.15;13.23;;;;;;;;;;4977699;28;20066;-58
2022/04/18 05:40:27;;;;;;;19.52;14.18;;;;;;;;;;4977339;28;20038;-54
2022/04/18 05:42:54;;;;;;;20.10;13.45;;;;;;;;;;4977303;28;20019;-53
2022/04/18 05:45:20;;;;;;;20.92;13.45;;;;;;;;;;4977583;28;20023;-51
2022/04/18 05:47:46;;;;;;;17.38;11.40;;;;;;;;;;4976887;28;20049;-55
2022/04/18 05:50:12;;;;;;;18.80;12.05;;;;;;;;;;4977167;28;20045;-54
2022/04/18 05:52:39;;;;;;;21.83;13.27;;;;;;;;;;4977159;28;20110;-53
2022/04/18 05:55:05;;;;;;;17.33;11.63;;;;;;;;;;4975834;28;20026;-57
2022/04/18 05:57:31;;;;;;;17.13;11.95;;;;;;;;;;4975398;28;20035;-52
2022/04/18 05:59:58;;;;;;;20.08;12.60;;;;;;;;;;4976091;28;20088;-56
2022/04/18 06:02:24;;;;;;;22.35;13.45;;;;;;;;;;4974680;28;20031;-50
2022/04/18 06:04:50;;;;;;;17.08;11.70;;;;;;;;;;4973866;28;20085;-55
2022/04/18 06:07:16;;;;;;;18.60;11.00;;;;;;;;;;4975573;28;20019;-50
2022/04/18 06:09:42;;;;;;;16.35;10.88;;;;;;;;;;4976563;28;20407;-50
2022/04/18 06:12:09;;;;;;;12.43;9.52;;;;;;;;;;4976546;28;20031;-51
2022/04/18 06:14:35;;;;;;;14.68;10.10;;;;;;;;;;4976694;28;20027;-55
2022/04/18 06:17:01;;;;;;;14.93;9.90;;;;;;;;;;4976951;28;20117;-54
2022/04/18 06:19:27;;;;;;;19.67;9.70;;;;;;;;;;4975842;28;20424;-55
2022/04/18 06:21:53;;;;;;;17.00;10.40;;;;;;;;;;4974084;28;20070;-55
2022/04/18 06:24:23;;;;;;;17.58;10.70;;;;;;;;;;4976941;28;20023;-57
2022/04/18 06:26:49;;;;;;;16.98;9.82;;;;;;;;;;4976710;28;20027;-56
2022/04/18 06:29:15;;;;;;;14.88;9.32;;;;;;;;;;4975000;28;20460;-52
2022/04/18 06:31:42;;;;;;;11.88;8.73;;;;;;;;;;4975876;28;20043;-53
2022/04/18 06:34:08;;;;;;;17.48;9.18;;;;;;;;;;4976166;28;20054;-48
2022/04/18 06:36:34;;;;;;;17.15;8.75;;;;;;;;;;4976544;28;20030;-53
2022/04/18 06:39:02;;;;;;;19.23;10.18;;;;;;;;;;4976281;28;20054;-52
2022/04/18 06:41:29;;;;;;;23.05;10.80;;;;;;;;;;4976465;28;20033;-50
2022/04/18 06:43:55;;;;;;;20.15;10.77;;;;;;;;;;4976272;28;20019;-50
2022/04/18 06:46:21;;;;;;;13.68;9.18;;;;;;;;;;4975984;28;20089;-55
2022/04/18 06:48:47;;;;;;;15.13;9.23;;;;;;;;;;4976119;28;20030;-50
2022/04/18 06:51:13;;;;;;;11.55;7.75;;;;;;;;;;4976331;28;20045;-50
2022/04/18 06:53:40;;;;;;;11.48;7.20;;;;;;;;;;4976068;28;20018;-55
2022/04/18 06:58:51;;;;;;;15.25;8.52;;;;;;;;;;4976052;28;20081;-53
2022/04/18 07:01:17;;;;;;;17.27;9.52;;;;;;;;;;4975528;28;20034;-54
2022/04/18 07:03:43;;;;;;;14.60;7.65;;;;;;;;;;4975738;28;20380;-54
2022/04/18 07:06:09;;;;;;;14.18;8.95;;;;;;;;;;4975936;28;20022;-56
2022/04/18 07:08:35;;;;;;;14.57;9.18;;;;;;;;;;4975945;28;20117;-50
2022/04/18 07:11:01;;;;;;;15.48;7.70;;;;;;;;;;4975864;28;20031;-52
2022/04/18 07:13:28;;;;;;;12.27;7.75;;;;;;;;;;4975628;28;20030;-50
2022/04/18 07:15:55;;;;;;;13.43;8.05;;;;;;;;;;4975938;28;20360;-58
2022/04/18 07:18:21;;;;;;;16.13;9.35;;;;;;;;;;4974550;28;20121;-52
2022/04/18 07:20:47;;;;;;;12.13;7.55;;;;;;;;;;4973962;28;20030;-54
2022/04/18 07:23:13;;;;;;;14.38;6.35;;;;;;;;;;4973788;28;20483;-54
2022/04/18 07:25:40;;;;;;;8.18;6.40;;;;;;;;;;4974315;28;20102;-58
2022/04/18 07:28:06;;;;;;;8.98;5.57;;;;;;;;;;4975133;28;20027;-55
2022/04/18 07:30:34;;;;;;;11.32;6.47;;;;;;;;;;4975222;28;20033;-50
2022/04/18 07:33:02;;;;;;;10.30;6.50;;;;;;;;;;4975187;28;20046;-54
2022/04/18 07:35:35;;;;;;;13.50;7.80;;;;;;;;;;4974985;28;20015;-56
2022/04/18 07:40:46;;;;;;;17.70;11.38;;;;;;;;;;4975478;28;20046;-52
2022/04/18 07:43:12;;;;;;;17.58;11.13;;;;;;;;;;4975358;28;20118;-50
2022/04/18 07:45:38;;;;;;;19.50;12.80;;;;;;;;;;4974983;28;20375;-54
2022/04/18 07:48:06;;;;;;;17.98;12.18;;;;;;;;;;4973364;28;20520;-54
2022/04/18 07:53:18;;;;;;;17.40;10.65;;;;;;;;;;4973660;28;20450;-53
2022/04/18 07:55:44;;;;;;;22.63;13.60;;;;;;;;;;4974032;28;20468;-51
2022/04/18 07:58:10;;;;;;;19.33;12.65;;;;;;;;;;4972508;28;20085;-50
2022/04/18 08:00:39;;;;;;;20.15;13.50;;;;;;;;;;4973537;28;20086;-50
2022/04/18 08:03:05;;;;;;;20.23;13.18;;;;;;;;;;4974614;28;20444;-51
2022/04/18 08:05:31;;;;;;;17.27;12.23;;;;;;;;;;4974644;28;20034;-53
2022/04/18 08:07:58;;;;;;;13.55;10.27;;;;;;;;;;4974725;28;20031;-53
2022/04/18 08:10:27;;;;;;;14.93;10.07;;;;;;;;;;4972597;28;20543;-52
2022/04/18 08:12:53;;;;;;;17.23;11.82;;;;;;;;;;4973698;28;20054;-51
2022/04/18 08:15:19;;;;;;;19.58;12.18;;;;;;;;;;4973922;28;20032;-48
2022/04/18 08:17:45;;;;;;;15.88;10.50;;;;;;;;;;4974039;28;20019;-54
2022/04/18 08:20:11;;;;;;;11.73;8.45;;;;;;;;;;4974862;28;20022;-52
2022/04/18 08:22:38;;;;;;;16.35;10.90;;;;;;;;;;4974961;28;20033;-51
2022/04/18 08:25:04;;;;;;;13.90;8.98;;;;;;;;;;4974117;28;20051;-53
2022/04/18 08:27:30;;;;;;;18.85;10.55;;;;;;;;;;4974427;28;20078;-50
2022/04/18 08:29:56;;;;;;;12.18;8.68;;;;;;;;;;4974687;28;20081;-51
2022/04/18 08:32:22;;;;;;;12.18;7.80;;;;;;;;;;4973860;28;20023;-54
2022/04/18 08:34:49;;;;;;;12.77;7.97;;;;;;;;;;4973816;28;20023;-54
2022/04/18 08:37:15;;;;;;;17.60;8.38;;;;;;;;;;4974534;28;20033;-50
2022/04/18 08:39:41;;;;;;;13.48;8.05;;;;;;;;;;4974097;28;20038;-55
2022/04/18 08:42:08;;;;;;;5.82;5.10;;;;;;;;;;4974288;28;20436;-53
2022/04/18 08:44:35;;;;;;;11.60;5.85;;;;;;;;;;4974716;28;20027;-52
2022/04/18 08:47:01;;;;;;;8.05;5.20;;;;;;;;;;4975398;28;20030;-53
2022/04/18 08:54:58;;;;;;;7.65;5.97;;;;;;;;;;4974337;28;20038;-54
2022/04/18 08:57:25;;;;;;;7.53;5.07;;;;;;;;;;4974662;28;20061;-52
2022/04/18 08:59:51;;;;;;;6.40;4.53;;;;;;;;;;4974408;28;20102;-53
2022/04/18 09:02:17;;;;;;;9.05;4.30;;;;;;;;;;4974417;28;20430;-54
2022/04/18 09:04:44;;;;;;;7.25;4.88;;;;;;;;;;4974330;28;20031;-53
2022/04/18 09:07:14;;;;;;;6.20;4.90;;;;;;;;;;4973920;28;20073;-51
2022/04/18 09:09:41;;;;;;;8.60;4.78;;;;;;;;;;4975309;28;20078;-56
2022/04/18 09:12:21;;;;;;;6.97;5.07;;;;;;;;;;4974129;28;20031;-55
2022/04/18 09:14:48;;;;;;;7.45;5.40;;;;;;;;;;4974135;28;20033;-55
2022/04/18 09:17:33;;;;;;;6.57;4.90;;;;;;;;;;4974456;28;20035;-50
2022/04/18 09:20:17;;;;;;;7.75;4.45;;;;;;;;;;4974314;28;20031;-53
2022/04/18 09:22:45;;;;;;;5.88;4.20;;;;;;;;;;4974268;28;20027;-54
2022/04/18 09:25:21;;;;;;;8.45;4.53;;;;;;;;;;4974308;28;20034;-53
2022/04/18 09:27:53;;;;;;;6.78;5.00;;;;;;;;;;4973681;28;20380;-53
2022/04/18 09:30:21;;;;;;;7.18;4.93;;;;;;;;;;4972557;28;20046;-51
2022/04/18 09:32:57;;;;;;;8.02;6.10;;;;;;;;;;4973951;28;20542;-53
2022/04/18 09:35:25;;;;;;;10.82;5.28;;;;;;;;;;4973933;28;20058;-56
2022/04/18 09:37:52;;;;;;;7.22;5.75;;;;;;;;;;4974590;28;20030;-56
2022/04/18 09:40:22;;;;;;;9.18;5.88;;;;;;;;;;4975236;28;20082;-55
2022/04/18 09:42:51;;;;;;;10.07;7.13;;;;;;;;;;4977586;28;20022;-56
2022/04/18 09:45:18;;;;;;;9.95;6.15;;;;;;;;;;4977687;28;20023;-56
2022/04/18 09:47:44;;;;;;;9.68;5.93;;;;;;;;;;4977496;28;20027;-57
2022/04/18 09:51:04;;;;;;;7.85;5.95;;;;;;;;;;4977148;28;20030;-55
2022/04/18 09:53:24;;;;;;;12.77;6.95;;;;;;;;;;4970378;28;20475;-53
2022/04/18 09:55:52;;;;;;;11.20;6.35;;;;;;;;;;4975560;28;20027;-54
2022/04/18 09:58:18;;;;;;;8.25;6.32;;;;;;;;;;4975068;28;20441;-54
2022/04/18 10:00:45;;;;;;;15.93;9.23;;;;;;;;;;4975191;28;20118;-51
2022/04/18 10:03:11;;;;;;;12.35;7.47;;;;;;;;;;4976277;28;20023;-51
2022/04/18 10:05:37;;;;;;;13.63;7.30;;;;;;;;;;4977840;28;20093;-49
2022/04/18 10:08:03;;;;;;;10.00;6.68;;;;;;;;;;4977257;28;20043;-52
2022/04/18 10:10:32;;;;;;;13.02;6.93;;;;;;;;;;4976532;28;20162;-53
2022/04/18 10:12:58;;;;;;;8.60;6.30;;;;;;;;;;4976897;28;20023;-49
2022/04/18 10:15:24;;;;;;;13.32;7.03;;;;;;;;;;4976592;28;20019;-54
2022/04/18 10:17:51;;;;;;;10.70;7.25;;;;;;;;;;4976769;28;20473;-48
2022/04/18 10:20:36;;;;;;;8.70;6.35;;;;;;;;;;4976771;28;20082;-55
2022/04/18 10:23:22;;;;;;;11.98;7.10;;;;;;;;;;4976848;28;20035;-57
2022/04/18 10:26:03;;;;;;;11.18;6.93;;;;;;;;;;4955490;28;20440;-55
2022/04/18 10:28:38;;;;;;;13.05;6.57;;;;;;;;;;4976281;28;20042;-56
2022/04/18 10:31:09;;;;;;;7.05;5.90;;;;;;;;;;4975130;28;20484;-49
2022/04/18 10:33:35;;;;;;;6.63;5.00;;;;;;;;;;4976697;28;20047;-51
2022/04/18 10:36:05;;;;;;;8.32;4.47;;;;;;;;;;4976218;28;20031;-56
2022/04/18 10:38:33;;;;;;;6.00;4.35;;;;;;;;;;4976037;28;20118;-50
2022/04/18 10:41:15;;;;;;;8.25;4.57;;;;;;;;;;4976543;28;20042;-53
2022/04/18 10:44:00;;;;;;;7.22;3.92;;;;;;;;;;4976124;28;20480;-52
2022/04/18 10:46:26;;;;;;;6.85;4.47;;;;;;;;;;4976439;28;20523;-51
2022/04/18 10:48:59;;;;;;;6.07;4.43;;;;;;;;;;4976666;28;20030;-51
2022/04/18 10:51:28;;;;;;;7.30;5.32;;;;;;;;;;4975816;28;20074;-50
2022/04/18 10:54:10;;;;;;;7.93;5.32;;;;;;;;;;4976266;28;20045;-54
2022/04/18 10:56:36;;;;;;;;;;;;;;;;;;4976703;28;20023;-52
2022/04/18 10:59:02;;;;;;;9.43;6.57;;;;;;;;;;4976056;28;19906;-53
2022/04/18 11:01:37;;;;;;;10.27;5.97;;;;;;;;;;4975854;28;20035;-53
2022/04/18 11:04:08;;;;;;;8.10;5.60;;;;;;;;;;4975610;28;20055;-53
2022/04/18 11:06:37;;;;;;;10.48;6.50;;;;;;;;;;4975635;28;20029;-54
2022/04/18 11:09:10;;;;;;;10.57;5.50;;;;;;;;;;4974451;28;20351;-49
2022/04/18 11:11:38;;;;;;;10.15;5.68;;;;;;;;;;4975475;28;20034;-53
2022/04/18 11:14:16;;;;;;;8.05;4.90;;;;;;;;;;4976283;28;20347;-53
2022/04/18 11:16:45;;;;;;;8.48;5.25;;;;;;;;;;4976026;28;20035;-51
2022/04/18 11:19:14;;;;;;;9.98;6.45;;;;;;;;;;4974441;28;20053;-50
2022/04/18 11:24:21;;;;;;;;;;;;;;;;;;4976305;28;20387;-48
2022/04/18 11:26:48;;;;;;;6.03;4.32;;;;;;;;;;4975485;28;19907;-49
2022/04/18 11:29:14;;;;;;;5.82;3.70;;;;;;;;;;4975815;28;20027;-54
2022/04/18 11:31:40;;;;;;;5.80;4.00;;;;;;;;;;4975334;28;20085;-51
2022/04/18 11:34:07;;;;;;;6.97;4.40;;;;;;;;;;4975465;28;20050;-55
2022/04/18 11:36:34;;;;;;;9.57;4.68;;;;;;;;;;4975621;28;20080;-53
2022/04/18 11:39:06;;;;;;;15.00;10.43;;;;;;;;;;4975237;28;20022;-51
2022/04/18 11:41:32;;;;;;;6.75;3.85;;;;;;;;;;4975207;28;20026;-51
2022/04/18 11:43:58;;;;;;;13.05;4.47;;;;;;;;;;4975476;28;20023;-50
2022/04/18 11:46:29;;;;;;;8.75;4.18;;;;;;;;;;4975092;28;20050;-50
2022/04/18 11:48:55;;;;;;;6.30;3.40;;;;;;;;;;4975472;28;20029;-51
2022/04/18 11:51:40;;;;;;;8.95;4.43;;;;;;;;;;4974966;28;20088;-52
2022/04/18 11:54:06;;;;;;;7.28;4.50;;;;;;;;;;4974835;28;20110;-51
2022/04/18 11:56:32;;;;;;;6.90;4.95;;;;;;;;;;4975272;28;20022;-56
2022/04/18 11:59:03;;;;;;;10.15;6.15;;;;;;;;;;4974929;28;20025;-51
2022/04/18 12:07:00;;;;;;;10.77;6.30;;;;;;;;;;4974919;28;20082;-50
2022/04/18 12:09:27;;;;;;;8.05;6.13;;;;;;;;;;4974662;28;20027;-51
2022/04/18 12:11:54;;;;;;;8.95;5.65;;;;;;;;;;4974663;28;20030;-54
2022/04/18 12:14:20;;;;;;;9.55;6.40;;;;;;;;;;4974641;28;20081;-52
2022/04/18 12:16:46;;;;;;;10.27;6.68;;;;;;;;;;4974672;28;20542;-53
2022/04/18 12:19:15;;;;;;;9.48;5.50;;;;;;;;;;4974904;28;20039;-54
2022/04/18 12:21:41;;;;;;;12.93;6.10;;;;;;;;;;4974572;28;20045;-53
2022/04/18 12:24:08;;;;;;;7.63;5.68;;;;;;;;;;4974937;28;20035;-54
2022/04/18 12:26:35;;;;;;;8.60;6.00;;;;;;;;;;4974618;28;20031;-55
2022/04/18 12:29:02;;;;;;;9.38;6.18;;;;;;;;;;4974845;28;20031;-54
2022/04/18 12:31:28;;;;;;;9.35;6.07;;;;;;;;;;4974932;28;20093;-52
2022/04/18 12:33:55;;;;;;;15.18;7.03;;;;;;;;;;4974043;28;20086;-54
2022/04/18 12:36:23;;;;;;;10.02;6.70;;;;;;;;;;4974786;28;20108;-52
2022/04/18 12:38:49;;;;;;;13.38;7.00;;;;;;;;;;4974985;28;20027;-55
2022/04/18 12:41:16;;;;;;;11.93;7.57;;;;;;;;;;4974361;28;20027;-53
2022/04/18 12:43:42;;;;;;;12.35;8.27;;;;;;;;;;4974679;28;20038;-53
2022/04/18 12:46:09;;;;;;;10.50;6.95;;;;;;;;;;4974409;28;20031;-55
2022/04/18 12:48:36;;;;;;;8.68;5.80;;;;;;;;;;4974543;28;20026;-51
2022/04/18 12:51:03;;;;;;;8.70;6.10;;;;;;;;;;4974729;28;20459;-53
2022/04/18 12:53:44;;;;;;;10.52;6.07;;;;;;;;;;4974043;28;20039;-51
2022/04/18 12:56:11;;;;;;;6.53;5.00;;;;;;;;;;4974336;28;20396;-54
2022/04/18 12:58:41;;;;;;;7.13;5.13;;;;;;;;;;4974869;28;20026;-52
2022/04/18 13:01:20;;;;;;;8.05;4.80;;;;;;;;;;4974387;28;20030;-53
2022/04/18 13:03:47;;;;;;;11.07;5.45;;;;;;;;;;4975052;28;20034;-52
2022/04/18 13:06:14;;;;;;;7.25;5.07;;;;;;;;;;4974218;28;20368;-51
2022/04/18 13:08:40;;;;;;;9.77;5.28;;;;;;;;;;4973940;28;20424;-53
2022/04/18 13:11:07;;;;;;;5.82;3.60;;;;;;;;;;4974160;28;20031;-54
2022/04/18 13:13:34;;;;;;;9.05;4.43;;;;;;;;;;4974215;28;20042;-52
2022/04/18 13:16:18;;;;;;;5.90;4.03;;;;;;;;;;4977072;28;20026;-53
2022/04/18 13:18:44;;;;;;;8.93;4.97;;;;;;;;;;4978123;28;20029;-51
2022/04/18 13:21:11;;;;;;;9.85;5.60;;;;;;;;;;4977028;28;20031;-55
2022/04/18 13:23:37;;;;;;;5.72;3.92;;;;;;;;;;4977497;28;20023;-51
2022/04/18 13:26:03;;;;;;;6.75;4.78;;;;;;;;;;4978590;28;20029;-54
2022/04/18 13:28:29;;;;;;;14.50;6.80;;;;;;;;;;4977650;28;20123;-57
2022/04/18 13:30:55;;;;;;;8.07;5.32;;;;;;;;;;4976699;28;20031;-53
2022/04/18 13:33:21;;;;;;;6.30;4.80;;;;;;;;;;4976903;28;20049;-54
2022/04/18 13:38:33;;;;;;;8.20;5.07;;;;;;;;;;4978176;28;20411;-54
2022/04/18 13:40:59;;;;;;;5.68;3.90;;;;;;;;;;4977495;28;20030;-51
2022/04/18 13:43:25;;;;;;;5.30;4.03;;;;;;;;;;4977329;28;20033;-56
2022/04/18 13:45:51;;;;;;;8.85;5.95;;;;;;;;;;4977333;28;20499;-53
2022/04/18 13:48:19;;;;;;;6.57;5.28;;;;;;;;;;4977495;28;20093;-51
2022/04/18 13:50:45;;;;;;;8.40;4.80;;;;;;;;;;4977040;28;20030;-50
2022/04/18 13:53:12;;;;;;;7.55;5.70;;;;;;;;;;4977075;28;20031;-51
2022/04/18 13:55:38;;;;;;;7.90;4.90;;;;;;;;;;4977167;28;20023;-53
2022/04/18 13:58:05;;;;;;;7.47;5.07;;;;;;;;;;4977042;28;20101;-49
2022/04/18 14:00:31;;;;;;;8.95;4.78;;;;;;;;;;4978041;28;20029;-56
2022/04/18 14:02:57;;;;;;;8.77;5.95;;;;;;;;;;4976463;28;20110;-50
2022/04/18 14:05:23;;;;;;;7.50;5.25;;;;;;;;;;4976967;28;20460;-54
2022/04/18 14:07:49;;;;;;;6.90;5.00;;;;;;;;;;4977185;28;20073;-50
2022/04/18 14:10:15;;;;;;;6.60;4.90;;;;;;;;;;4976440;28;20472;-60
2022/04/18 14:12:42;;;;;;;8.27;5.90;;;;;;;;;;4976689;28;20031;-55
2022/04/18 14:20:38;;;;;;;10.35;6.28;;;;;;;;;;4976979;28;20117;-52
2022/04/18 14:23:05;;;;;;;7.32;5.70;;;;;;;;;;4975357;28;20069;-52
2022/04/18 14:25:31;;;;;;;11.30;6.10;;;;;;;;;;4973103;28;20082;-50
2022/04/18 14:27:57;;;;;;;17.75;6.20;;;;;;;;;;4967377;28;20027;-49
2022/04/18 14:30:23;;;;;;;7.53;5.57;;;;;;;;;;4964435;28;20488;-49
2022/04/18 14:32:50;;;;;;;8.70;5.15;;;;;;;;;;4976475;28;20059;-48
2022/04/18 14:35:16;;;;;;;13.13;5.80;;;;;;;;;;4976254;28;20031;-48
2022/04/18 14:37:43;;;;;;;8.63;5.30;;;;;;;;;;4976618;28;20109;-50
2022/04/18 14:40:10;;;;;;;8.85;5.88;;;;;;;;;;4975981;28;20101;-48
2022/04/18 14:42:36;;;;;;;10.18;6.45;;;;;;;;;;4976551;28;20042;-55
2022/04/18 14:45:03;;;;;;;10.18;5.47;;;;;;;;;;4975939;28;20118;-50
2022/04/18 14:47:29;;;;;;;8.32;5.00;;;;;;;;;;4976547;28;20021;-51
2022/04/18 14:49:55;;;;;;;9.13;5.25;;;;;;;;;;4976315;28;20050;-52
2022/04/18 14:52:22;;;;;;;7.82;5.10;;;;;;;;;;4976550;28;20042;-53
2022/04/18 14:54:50;;;;;;;18.75;9.40;;;;;;;;;;4976067;28;20512;-55
2022/04/18 14:57:16;;;;;;;25.73;11.85;;;;;;;;;;4976128;28;20038;-54
2022/04/18 14:59:42;;;;;;;18.65;8.52;;;;;;;;;;4975707;28;20031;-53
2022/04/18 15:02:09;;;;;;;10.95;6.35;;;;;;;;;;4976229;28;20042;-52
2022/04/18 15:04:35;;;;;;;12.82;6.65;;;;;;;;;;4975909;28;20038;-54
2022/04/18 15:07:01;;;;;;;12.30;7.65;;;;;;;;;;4975866;28;20034;-56
2022/04/18 15:09:27;;;;;;;9.80;6.07;;;;;;;;;;4976035;28;20098;-52
2022/04/18 15:11:53;;;;;;;10.30;6.28;;;;;;;;;;4975097;28;20074;-54